Time;durP1;ratioP1;P1;durP2;ratioP2;P2;SDS_P1;SDS_P2;PMS_P1;PMS_P2;Temp;Humidity;BMP_temperature;BMP_pressure;BME280_temperature;BME280_humidity;BME280_pressure;Samples;Min_cycle;Max_cycle;Signal;HPM_P1;HPM_P2
2022/12/17 13:07:43;;;;;;;14.90;11.00;;;;;;;;;;4973881;28;20430;-83
2022/12/17 13:10:21;;;;;;;11.37;8.33;;;;;;;;;;4988783;28;20917;-82
2022/12/17 13:12:47;;;;;;;12.73;7.60;;;;;;;;;;4989371;28;20432;-86
2022/12/17 13:15:22;;;;;;;14.83;10.00;;;;;;;;;;4974170;28;20519;-83
2022/12/17 13:17:56;;;;;;;13.07;8.00;;;;;;;;;;4990323;28;20470;-83
2022/12/17 13:20:22;;;;;;;11.77;8.70;;;;;;;;;;4993013;28;20426;-85
2022/12/17 13:22:50;;;;;;;13.67;8.03;;;;;;;;;;4977884;28;20481;-82
2022/12/17 13:25:18;;;;;;;11.90;9.17;;;;;;;;;;4977901;28;20499;-81
2022/12/17 13:27:44;;;;;;;16.03;9.33;;;;;;;;;;4992693;28;20478;-82
2022/12/17 13:30:23;;;;;;;17.97;6.93;;;;;;;;;;4977340;28;20416;-86
2022/12/17 13:33:08;;;;;;;12.80;6.80;;;;;;;;;;4991967;28;20458;-82
2022/12/17 13:35:37;;;;;;;11.27;7.77;;;;;;;;;;4992676;28;20463;-83
2022/12/17 13:38:21;;;;;;;10.00;7.20;;;;;;;;;;4977553;28;20431;-87
2022/12/17 13:40:57;;;;;;;8.57;7.60;;;;;;;;;;4976776;28;20423;-91
2022/12/17 13:43:26;;;;;;;16.67;8.50;;;;;;;;;;4977722;28;21041;-82
2022/12/17 13:45:54;;;;;;;9.70;7.50;;;;;;;;;;4992090;28;20527;-87
2022/12/17 13:48:25;;;;;;;13.60;7.83;;;;;;;;;;4976687;28;20470;-85
2022/12/17 13:50:55;;;;;;;12.27;9.20;;;;;;;;;;4975301;28;20574;-83
2022/12/17 13:53:22;;;;;;;12.73;8.20;;;;;;;;;;4975672;28;20432;-82
2022/12/17 13:55:51;;;;;;;12.23;8.07;;;;;;;;;;4975913;28;20467;-82
2022/12/17 13:58:21;;;;;;;13.87;8.53;;;;;;;;;;4992255;28;20427;-82
2022/12/17 14:00:47;;;;;;;13.93;7.53;;;;;;;;;;4992491;28;20943;-89
2022/12/17 14:03:19;;;;;;;12.17;7.40;;;;;;;;;;4996014;28;20478;-87
2022/12/17 14:05:45;;;;;;;11.27;6.93;;;;;;;;;;4993419;28;20463;-84
2022/12/17 14:08:14;;;;;;;11.60;6.47;;;;;;;;;;4976075;28;20983;-83
2022/12/17 14:10:45;;;;;;;13.17;7.47;;;;;;;;;;4988115;28;20408;-84
2022/12/17 14:13:13;;;;;;;12.87;6.50;;;;;;;;;;4990890;28;20802;-83
2022/12/17 14:15:44;;;;;;;13.73;7.10;;;;;;;;;;4974139;28;20827;-84
2022/12/17 14:18:14;;;;;;;12.53;6.40;;;;;;;;;;4991145;28;20944;-86
2022/12/17 14:20:40;;;;;;;9.80;6.57;;;;;;;;;;4975669;28;20447;-83
2022/12/17 14:23:08;;;;;;;10.53;5.70;;;;;;;;;;4975480;28;20478;-85
2022/12/17 14:25:35;;;;;;;7.97;5.97;;;;;;;;;;4990822;28;20519;-84
2022/12/17 14:28:03;;;;;;;8.90;5.80;;;;;;;;;;4990668;28;20419;-83
2022/12/17 14:30:36;;;;;;;7.63;5.80;;;;;;;;;;4990057;28;20435;-82
2022/12/17 14:33:02;;;;;;;13.57;6.10;;;;;;;;;;4990081;28;20408;-82
2022/12/17 14:35:48;;;;;;;9.70;6.20;;;;;;;;;;4990088;28;20418;-82
2022/12/17 14:38:19;;;;;;;9.10;5.87;;;;;;;;;;4973439;28;20995;-81
2022/12/17 14:40:47;;;;;;;14.23;6.87;;;;;;;;;;4989628;28;20439;-83
2022/12/17 14:43:14;;;;;;;11.70;8.30;;;;;;;;;;4973899;28;20482;-85
2022/12/17 14:51:25;;;;;;;17.37;6.70;;;;;;;;;;4974636;28;20452;-84
2022/12/17 14:53:51;;;;;;;17.33;6.83;;;;;;;;;;4989660;28;20542;-87
2022/12/17 14:56:22;;;;;;;9.87;6.13;;;;;;;;;;4973928;28;20427;-81
2022/12/17 14:58:48;;;;;;;10.10;8.70;;;;;;;;;;4973765;28;20432;-82
2022/12/17 15:01:14;;;;;;;12.73;6.67;;;;;;;;;;4974013;28;20412;-82
2022/12/17 15:03:41;;;;;;;6.97;5.90;;;;;;;;;;4974542;28;20504;-82
2022/12/17 15:06:09;;;;;;;11.17;7.30;;;;;;;;;;4989651;28;20424;-82
2022/12/17 15:08:42;;;;;;;12.20;6.90;;;;;;;;;;4975135;28;20424;-84
2022/12/17 15:11:09;;;;;;;11.17;6.40;;;;;;;;;;4984853;28;20420;-83
2022/12/17 15:13:35;;;;;;;9.30;6.70;;;-0.50;1.00;;;;;;4974924;28;20775;-82
2022/12/17 15:16:00;;;;;;;11.33;6.13;;;-0.30;1.00;;;;;;4974195;28;20428;-84
2022/12/17 15:18:26;;;;;;;7.30;6.03;;;-0.10;5.60;;;;;;4974703;28;20176;-85
2022/12/17 15:20:51;;;;;;;9.27;6.60;;;-0.90;72.90;;;;;;4974165;28;20177;-82
2022/12/17 15:23:20;;;;;;;12.90;7.50;;;-0.70;50.30;;;;;;4974507;28;20297;-81
2022/12/17 15:25:47;;;;;;;10.27;7.23;;;-0.80;62.90;;;;;;4972740;28;20181;-84
2022/12/17 15:28:13;;;;;;;10.07;6.07;;;-0.90;99.90;;;;;;4974265;28;20442;-82
2022/12/17 15:30:38;;;;;;;9.40;6.93;;;-0.60;99.90;;;;;;4975688;28;20554;-83
2022/12/17 15:33:05;;;;;;;12.33;8.20;;;-0.60;45.20;;;;;;4974360;28;20518;-82
2022/12/17 15:35:31;;;;;;;9.20;7.87;;;-0.60;26.50;;;;;;4974789;28;20173;-83
2022/12/17 15:37:57;;;;;;;12.57;7.60;;;-0.80;34.40;;;;;;4989985;28;20423;-82
2022/12/17 15:40:22;;;;;;;13.63;9.10;;;-0.80;58.50;;;;;;4973254;28;20242;-83
2022/12/17 15:45:32;;;;;;;13.97;9.20;;;-1.10;99.90;;;;;;4973292;28;20225;-82
2022/12/17 15:47:57;;;;;;;11.57;9.53;;;-1.10;99.90;;;;;;4973545;28;20450;-82
2022/12/17 15:50:23;;;;;;;20.77;11.67;;;-1.00;99.90;;;;;;4973462;28;20176;-90
2022/12/17 15:52:48;;;;;;;16.97;12.50;;;-1.50;99.90;;;;;;4972800;28;20210;-81
2022/12/17 15:55:14;;;;;;;19.33;14.07;;;-1.70;99.90;;;;;;4973573;28;20262;-84
2022/12/17 15:57:41;;;;;;;20.20;15.23;;;-1.80;99.90;;;;;;4973934;28;20274;-83
2022/12/17 16:00:07;;;;;;;19.67;12.93;;;-1.90;99.90;;;;;;4975153;28;20189;-82
2022/12/17 16:02:33;;;;;;;19.23;12.37;;;-1.80;99.90;;;;;;4975290;28;20475;-83
2022/12/17 16:04:58;;;;;;;18.80;11.87;;;-1.70;99.90;;;;;;4975282;28;20794;-82
2022/12/17 16:07:23;;;;;;;12.30;9.90;;;-2.30;99.90;;;;;;4974111;28;20184;-82
2022/12/17 16:09:49;;;;;;;17.73;12.17;;;-2.10;99.90;;;;;;4975112;28;20223;-81
2022/12/17 16:12:15;;;;;;;11.90;8.47;;;-1.80;99.90;;;;;;4974902;28;20649;-82
2022/12/17 16:14:41;;;;;;;51.83;33.00;;;-1.50;99.90;;;;;;4972600;28;20178;-90
2022/12/17 16:17:06;;;;;;;38.47;23.53;;;-1.60;99.90;;;;;;4988413;28;20426;-82
2022/12/17 16:19:32;;;;;;;45.60;25.30;;;-1.80;99.90;;;;;;4973820;28;20541;-82
2022/12/17 16:21:57;;;;;;;33.90;19.80;;;-1.50;99.90;;;;;;4972015;28;20198;-82
2022/12/17 16:24:23;;;;;;;25.30;18.63;;;-1.60;99.90;;;;;;4973576;28;20182;-83
2022/12/17 16:26:49;;;;;;;23.97;14.03;;;-1.60;99.90;;;;;;4973397;28;20176;-84
2022/12/17 16:29:14;;;;;;;42.30;26.10;;;-1.80;99.90;;;;;;4973299;28;20652;-82
2022/12/17 16:31:40;;;;;;;16.37;14.43;;;-1.50;99.90;;;;;;4973015;28;20549;-82
2022/12/17 16:34:10;;;;;;;28.43;21.97;;;-1.90;99.90;;;;;;4973579;28;20623;-84
2022/12/17 16:36:42;;;;;;;23.10;18.53;;;-1.90;99.90;;;;;;4973615;28;20172;-82
2022/12/17 16:39:13;;;;;;;22.80;14.23;;;-1.50;99.90;;;;;;4968431;28;20420;-81
2022/12/17 16:41:38;;;;;;;26.23;17.93;;;-1.70;99.90;;;;;;4986373;28;20426;-81
2022/12/17 16:44:04;;;;;;;14.30;10.37;;;-1.90;99.90;;;;;;4976301;28;20860;-81
2022/12/17 16:46:32;;;;;;;14.50;9.40;;;-2.00;99.90;;;;;;4974793;28;20211;-82
2022/12/17 16:49:04;;;;;;;16.50;9.57;;;-1.80;99.90;;;;;;4990324;28;20221;-82
2022/12/17 16:51:30;;;;;;;22.00;9.97;;;-1.80;99.90;;;;;;4988156;28;20419;-82
2022/12/17 16:53:57;;;;;;;15.60;9.80;;;-2.00;99.90;;;;;;4971814;28;20474;-83
2022/12/17 16:56:26;;;;;;;18.10;11.30;;;-2.00;99.90;;;;;;4974128;28;20430;-82
2022/12/17 16:58:52;;;;;;;17.30;12.77;;;-2.10;99.90;;;;;;4973859;28;20439;-84
2022/12/17 17:01:23;;;;;;;26.20;14.47;;;-2.20;99.90;;;;;;4973623;28;20429;-81
2022/12/17 17:03:49;;;;;;;15.63;12.53;;;-2.20;99.90;;;;;;4973692;28;20438;-82
2022/12/17 17:06:16;;;;;;;31.70;16.50;;;-2.10;99.90;;;;;;4990753;28;20932;-82
2022/12/17 17:08:42;;;;;;;15.10;10.37;;;-2.10;99.90;;;;;;4974158;28;20270;-81
2022/12/17 17:11:11;;;;;;;13.10;9.60;;;-2.00;99.90;;;;;;4972205;28;20418;-81
2022/12/17 17:13:37;;;;;;;12.20;9.57;;;-2.10;99.90;;;;;;4988951;28;20433;-82
2022/12/17 17:16:04;;;;;;;14.47;10.33;;;-2.30;99.90;;;;;;4971001;28;20428;-82
2022/12/17 17:18:29;;;;;;;18.67;13.83;;;-2.30;99.90;;;;;;4972065;28;20179;-84
2022/12/17 17:21:11;;;;;;;22.50;13.37;;;-2.40;99.90;;;;;;4987393;28;20438;-83
2022/12/17 17:23:37;;;;;;;21.33;16.03;;;-2.20;99.90;;;;;;4968966;28;20240;-81
2022/12/17 17:26:03;;;;;;;17.00;12.93;;;-2.50;99.90;;;;;;4987518;28;20404;-81
2022/12/17 17:28:28;;;;;;;14.83;9.73;;;-2.20;99.90;;;;;;4987493;28;20434;-82
2022/12/17 17:31:01;;;;;;;16.43;9.33;;;-2.30;99.90;;;;;;4970975;28;20173;-81
2022/12/17 17:33:31;;;;;;;18.07;9.60;;;-2.70;99.90;;;;;;4966713;28;20667;-91
2022/12/17 17:36:08;;;;;;;20.70;12.20;;;-2.70;99.90;;;;;;4972059;28;20493;-90
2022/12/17 17:38:36;;;;;;;15.90;10.80;;;-2.50;99.90;;;;;;4983538;28;20811;-81
2022/12/17 17:41:02;;;;;;;13.93;11.20;;;-2.40;99.90;;;;;;4972176;28;20522;-84
2022/12/17 17:43:28;;;;;;;14.70;10.83;;;-2.70;99.90;;;;;;4972897;28;20612;-80
2022/12/17 17:46:07;;;;;;;16.80;13.30;;;-2.60;99.90;;;;;;4973325;28;20505;-82
2022/12/17 17:48:33;;;;;;;17.73;12.67;;;-2.60;99.90;;;;;;4973920;28;20426;-82
2022/12/17 17:51:05;;;;;;;17.27;10.93;;;-2.40;99.90;;;;;;4973252;28;20429;-81
2022/12/17 17:53:30;;;;;;;12.90;10.80;;;-2.70;99.90;;;;;;4972611;28;20434;-81
2022/12/17 17:56:05;;;;;;;18.83;11.73;;;-2.90;99.90;;;;;;4972347;28;20427;-81
2022/12/17 17:58:31;;;;;;;16.17;12.47;;;-2.80;99.90;;;;;;4972943;28;20651;-81
2022/12/17 18:00:56;;;;;;;17.20;13.47;;;-3.00;99.90;;;;;;4972816;28;20419;-81
2022/12/17 18:03:22;;;;;;;18.90;13.97;;;-2.80;99.90;;;;;;4973682;28;20483;-81
2022/12/17 18:05:47;;;;;;;15.83;12.30;;;-2.80;99.90;;;;;;4975010;28;20269;-82
2022/12/17 18:08:13;;;;;;;27.37;13.70;;;-2.80;99.90;;;;;;4977044;28;20183;-81
2022/12/17 18:10:38;;;;;;;14.23;11.53;;;-3.10;99.90;;;;;;4975735;28;20242;-81
2022/12/17 18:15:48;;;;;;;18.60;12.10;;;-2.90;99.90;;;;;;4976802;28;20701;-81
2022/12/17 18:18:13;;;;;;;20.20;15.63;;;-3.30;99.90;;;;;;4975709;28;20432;-81
2022/12/17 18:20:39;;;;;;;21.27;19.00;;;-3.00;99.90;;;;;;4977376;28;20193;-81
2022/12/17 18:23:04;;;;;;;23.60;13.93;;;-3.10;99.90;;;;;;4978342;28;20210;-82
2022/12/17 18:25:30;;;;;;;21.17;14.27;;;-3.10;99.90;;;;;;4981912;28;20176;-81
2022/12/17 18:27:55;;;;;;;27.03;13.83;;;-3.30;99.90;;;;;;4977008;28;20269;-81
2022/12/17 18:30:21;;;;;;;16.43;10.87;;;-3.20;99.90;;;;;;4975488;28;20217;-84
2022/12/17 18:32:52;;;;;;;22.30;12.53;;;-3.20;99.90;;;;;;4975644;28;20187;-87
2022/12/17 18:35:18;;;;;;;18.87;12.83;;;-3.50;99.90;;;;;;4977194;28;20183;-80
2022/12/17 18:37:43;;;;;;;15.77;13.57;;;-3.70;99.90;;;;;;4975589;28;20423;-81
2022/12/17 18:40:09;;;;;;;19.03;14.40;;;-3.40;99.90;;;;;;4975307;28;20173;-90
2022/12/17 18:45:19;;;;;;;17.73;11.90;;;-3.20;99.90;;;;;;4976691;28;20427;-89
2022/12/17 18:47:44;;;;;;;18.60;14.30;;;-3.50;99.90;;;;;;4976453;28;20424;-80
2022/12/17 18:50:11;;;;;;;20.80;11.70;;;-3.40;99.90;;;;;;4976864;28;20247;-81
2022/12/17 18:52:37;;;;;;;21.33;11.80;;;-3.50;99.90;;;;;;4975529;28;20592;-86
2022/12/17 18:55:23;;;;;;;12.10;10.97;;;-3.30;99.90;;;;;;4975292;28;20468;-88
2022/12/17 18:57:49;;;;;;;9.83;8.37;;;-3.50;99.90;;;;;;4974991;28;20423;-82
2022/12/17 19:00:14;;;;;;;12.27;9.67;;;-3.50;99.90;;;;;;4974721;28;20460;-81
2022/12/17 19:02:40;;;;;;;17.33;11.53;;;-3.40;99.90;;;;;;4991162;28;20238;-81
2022/12/17 19:05:06;;;;;;;12.80;11.57;;;-3.60;99.90;;;;;;4974978;28;20179;-86
2022/12/17 19:07:31;;;;;;;18.07;11.03;;;-3.60;99.90;;;;;;4975305;28;20176;-81
2022/12/17 19:09:57;;;;;;;17.23;10.93;;;-3.40;99.90;;;;;;4976203;28;20228;-80
2022/12/17 19:12:22;;;;;;;16.67;11.60;;;-3.50;99.90;;;;;;4974609;28;20170;-83
2022/12/17 19:14:48;;;;;;;18.50;13.17;;;-3.50;99.90;;;;;;4973941;28;20526;-83
2022/12/17 19:17:13;;;;;;;16.17;10.47;;;-3.60;99.90;;;;;;4990778;28;20180;-82
2022/12/17 19:19:39;;;;;;;15.17;12.20;;;-3.50;99.90;;;;;;4976136;28;20197;-81
2022/12/17 19:22:04;;;;;;;14.60;12.73;;;-3.50;99.90;;;;;;4975007;28;20208;-81
2022/12/17 19:24:30;;;;;;;17.83;13.57;;;-3.70;99.90;;;;;;4975018;28;20164;-82
2022/12/17 19:26:55;;;;;;;15.77;10.00;;;-3.70;99.90;;;;;;4974301;28;20601;-81
2022/12/17 19:29:21;;;;;;;13.70;11.07;;;-3.80;99.90;;;;;;4974605;28;20175;-85
2022/12/17 19:31:48;;;;;;;19.50;12.40;;;-3.90;99.90;;;;;;4976187;28;20181;-81
2022/12/17 19:34:15;;;;;;;10.07;8.47;;;-3.70;99.90;;;;;;4974402;28;20508;-82
2022/12/17 19:36:42;;;;;;;14.73;10.00;;;-3.90;99.90;;;;;;4974365;28;20782;-81
2022/12/17 19:39:12;;;;;;;9.40;8.60;;;-3.80;99.90;;;;;;4975655;28;20886;-81
2022/12/17 19:41:38;;;;;;;13.47;10.07;;;-4.00;99.90;;;;;;4974762;28;20430;-83
2022/12/17 19:44:06;;;;;;;15.47;11.30;;;-3.90;99.90;;;;;;4975720;28;20492;-80
2022/12/17 19:46:33;;;;;;;14.03;9.00;;;-4.00;99.90;;;;;;4975786;28;20471;-82
2022/12/17 19:48:59;;;;;;;15.00;10.60;;;-4.00;99.90;;;;;;4990580;28;20806;-81
2022/12/17 19:51:27;;;;;;;13.93;10.73;;;-4.00;99.90;;;;;;4975298;28;20415;-80
2022/12/17 19:53:54;;;;;;;14.00;12.50;;;-4.10;99.90;;;;;;4978247;28;20980;-81
2022/12/17 19:56:25;;;;;;;16.20;12.03;;;-4.00;99.90;;;;;;4975646;28;20435;-83
2022/12/17 19:58:53;;;;;;;16.67;11.20;;;-4.10;99.90;;;;;;4973660;28;20416;-85
2022/12/17 20:01:22;;;;;;;16.50;13.00;;;-4.10;99.90;;;;;;4975311;28;20808;-81
2022/12/17 20:03:48;;;;;;;13.87;11.07;;;-4.60;99.90;;;;;;4973781;28;20475;-82
2022/12/17 20:06:15;;;;;;;16.60;11.20;;;-4.40;99.90;;;;;;4973715;28;20450;-82
2022/12/17 20:08:41;;;;;;;13.63;10.20;;;-4.30;99.90;;;;;;4974053;28;20183;-91
2022/12/17 20:14:13;;;;;;;27.30;12.20;;;-4.50;99.90;;;;;;4966428;28;20409;-83
2022/12/17 20:16:53;;;;;;;17.40;11.80;;;-4.30;99.90;;;;;;4975338;28;20412;-85
2022/12/17 20:19:21;;;;;;;14.70;11.47;;;-4.20;99.90;;;;;;4975365;28;20423;-83
2022/12/17 20:21:50;;;;;;;16.63;8.87;;;-4.40;99.90;;;;;;4975900;28;20493;-83
2022/12/17 20:24:16;;;;;;;16.80;11.17;;;-4.60;99.90;;;;;;4990862;28;20435;-84
2022/12/17 20:26:43;;;;;;;10.13;8.20;;;-4.40;99.90;;;;;;4973783;28;20859;-84
2022/12/17 20:29:09;;;;;;;16.27;10.57;;;-4.60;99.90;;;;;;4974815;28;20692;-84
2022/12/17 20:31:35;;;;;;;12.57;10.20;;;-4.80;99.90;;;;;;4975885;28;20475;-82
2022/12/17 20:34:06;;;;;;;11.87;9.43;;;-4.90;99.90;;;;;;4974114;28;21004;-82
2022/12/17 20:36:32;;;;;;;18.63;11.33;;;-4.80;99.90;;;;;;4976243;28;20504;-87
2022/12/17 20:38:57;;;;;;;17.40;10.10;;;-4.90;99.90;;;;;;4976093;28;20460;-81
2022/12/17 20:41:25;;;;;;;17.97;11.67;;;-4.80;99.90;;;;;;4974844;28;20421;-82
2022/12/17 20:43:51;;;;;;;8.70;7.80;;;-4.80;99.90;;;;;;4973306;28;20694;-81
2022/12/17 20:46:18;;;;;;;10.80;9.03;;;-5.20;99.90;;;;;;4990137;28;20417;-87
2022/12/17 20:48:44;;;;;;;13.40;9.80;;;-5.20;99.90;;;;;;4973190;28;20427;-81
2022/12/17 20:51:13;;;;;;;19.87;12.27;;;-5.30;99.90;;;;;;4989123;28;20420;-81
2022/12/17 20:53:40;;;;;;;14.57;11.80;;;-5.10;99.90;;;;;;4972802;28;20429;-83
2022/12/17 20:56:18;;;;;;;18.90;10.00;;;-5.10;99.90;;;;;;4973122;28;20956;-82
2022/12/17 20:58:44;;;;;;;10.07;9.10;;;-5.20;99.90;;;;;;4972711;28;20447;-80
2022/12/17 21:01:11;;;;;;;17.33;9.77;;;-5.00;99.90;;;;;;4973076;28;20415;-81
2022/12/17 21:03:37;;;;;;;15.97;10.30;;;-5.00;99.90;;;;;;4974290;28;20302;-81
2022/12/17 21:06:08;;;;;;;19.93;10.37;;;-4.90;99.90;;;;;;4973001;28;20408;-81
2022/12/17 21:08:33;;;;;;;26.50;11.13;;;-4.80;99.90;;;;;;4973038;28;20886;-81
2022/12/17 21:10:59;;;;;;;14.33;12.70;;;-4.80;99.90;;;;;;4974252;28;20424;-80
2022/12/17 21:13:27;;;;;;;16.70;10.80;;;-4.80;99.90;;;;;;4928989;28;20473;-84
2022/12/17 21:15:53;;;;;;;16.23;11.80;;;-4.90;99.90;;;;;;4951753;29;20719;-80
2022/12/17 21:18:19;;;;;;;19.63;12.40;;;-4.60;99.90;;;;;;4953188;28;20507;-81
2022/12/17 21:20:57;;;;;;;14.93;11.60;;;-4.70;99.90;;;;;;4954457;29;20423;-79
2022/12/17 21:23:23;;;;;;;13.67;12.27;;;-4.50;99.90;;;;;;4958520;28;20686;-85
2022/12/17 21:26:00;;;;;;;18.27;12.03;;;-4.60;99.90;;;;;;4953378;29;20436;-81
2022/12/17 21:28:26;;;;;;;19.00;10.10;;;-4.80;99.90;;;;;;4953410;29;20215;-81
2022/12/17 21:30:51;;;;;;;8.00;7.20;;;-4.70;99.90;;;;;;4953652;29;20934;-80
2022/12/17 21:33:17;;;;;;;9.03;6.53;;;-4.60;99.90;;;;;;4953389;29;20177;-80
2022/12/17 21:35:42;;;;;;;8.87;7.47;;;-4.50;99.90;;;;;;4953358;29;20180;-82
2022/12/17 21:38:08;;;;;;;10.33;7.03;;;-4.70;99.90;;;;;;4955101;28;20192;-82
2022/12/17 21:40:36;;;;;;;8.40;7.60;;;-4.70;99.90;;;;;;4961554;28;20224;-86
2022/12/17 21:43:02;;;;;;;20.23;11.23;;;-4.70;99.90;;;;;;4958209;29;20572;-81
2022/12/17 21:45:34;;;;;;;13.03;9.23;;;-4.70;99.90;;;;;;4957890;28;20512;-82
2022/12/17 21:47:59;;;;;;;16.47;10.63;;;-4.90;99.90;;;;;;4958182;28;20177;-81
2022/12/17 21:50:25;;;;;;;10.13;8.87;;;-4.70;99.90;;;;;;4956887;29;20439;-82
2022/12/17 21:52:50;;;;;;;14.17;9.90;;;-4.90;99.90;;;;;;4958108;29;20178;-82
2022/12/17 21:55:16;;;;;;;13.53;9.50;;;-4.90;99.90;;;;;;4956498;29;20294;-81
2022/12/17 21:57:42;;;;;;;18.00;12.37;;;-4.80;99.90;;;;;;4958033;29;20228;-84
2022/12/17 22:00:08;;;;;;;10.17;8.43;;;-4.80;99.90;;;;;;4972468;28;20224;-81
2022/12/17 22:02:42;;;;;;;12.30;11.00;;;-4.70;99.90;;;;;;4956767;29;20830;-87
2022/12/17 22:05:08;;;;;;;20.67;11.50;;;-4.80;99.90;;;;;;4972612;28;20505;-81
2022/12/17 22:07:34;;;;;;;13.80;7.50;;;-4.90;99.90;;;;;;4972646;28;20435;-81
2022/12/17 22:10:00;;;;;;;10.20;8.37;;;-4.70;99.90;;;;;;4956622;29;20421;-81
2022/12/17 22:15:09;;;;;;;15.97;11.03;;;-4.80;99.90;;;;;;4957544;29;20210;-80
2022/12/17 22:17:36;;;;;;;14.13;8.07;;;-5.00;99.90;;;;;;4972502;28;20430;-80
2022/12/17 22:20:02;;;;;;;17.20;8.10;;;-4.90;99.90;;;;;;4972442;28;20181;-82
2022/12/17 22:22:28;;;;;;;10.27;7.83;;;-5.00;99.90;;;;;;4956242;29;20460;-80
2022/12/17 22:24:56;;;;;;;11.20;9.40;;;-5.00;99.90;;;;;;4940533;28;20514;-80
2022/12/17 22:27:22;;;;;;;12.03;7.23;;;-5.20;99.90;;;;;;4976801;28;20168;-80
2022/12/17 22:35:19;;;;;;;11.00;9.50;;;-5.10;99.90;;;;;;4974734;28;20419;-85
2022/12/17 22:37:44;;;;;;;7.57;5.70;;;-5.10;99.90;;;;;;4976731;28;20420;-82
2022/12/17 22:40:10;;;;;;;8.83;7.90;;;-5.00;99.90;;;;;;4975726;28;20184;-88
2022/12/17 22:45:20;;;;;;;10.60;7.17;;;-4.80;99.90;;;;;;4976543;28;20419;-81
2022/12/17 22:47:45;;;;;;;12.70;7.53;;;-4.90;99.90;;;;;;4979779;28;20420;-83
2022/12/17 22:50:11;;;;;;;11.13;8.13;;;-4.90;99.90;;;;;;4994994;28;20224;-83
2022/12/17 22:52:36;;;;;;;9.03;5.37;;;-5.00;99.90;;;;;;4976771;28;20181;-84
2022/12/17 22:55:03;;;;;;;9.50;8.50;;;-5.00;99.90;;;;;;4991460;28;20221;-80
2022/12/17 22:57:28;;;;;;;13.33;8.80;;;-5.30;99.90;;;;;;4991315;28;20192;-80
2022/12/17 22:59:54;;;;;;;9.07;8.20;;;-5.10;99.90;;;;;;4990837;28;20416;-88
2022/12/17 23:02:19;;;;;;;10.70;8.63;;;-5.10;99.90;;;;;;4991364;28;20208;-81
2022/12/17 23:04:45;;;;;;;10.47;7.83;;;-5.00;99.90;;;;;;4991056;28;20184;-80
2022/12/17 23:07:10;;;;;;;15.83;8.90;;;-5.10;99.90;;;;;;4990856;28;20733;-81
2022/12/17 23:09:36;;;;;;;10.60;6.80;;;-5.10;99.90;;;;;;4990909;28;20184;-83
2022/12/17 23:12:49;;;;;;;15.53;6.67;;;-5.20;99.90;;;;;;4991066;28;20189;-80
2022/12/17 23:14:47;;;;;;;9.20;8.30;;;-5.10;99.90;;;;;;4975479;28;20567;-81
2022/12/17 23:17:12;;;;;;;10.30;8.80;;;-5.20;99.90;;;;;;4975981;28;20423;-82
2022/12/17 23:19:38;;;;;;;9.77;7.60;;;-5.30;99.90;;;;;;4990621;28;20187;-80
2022/12/17 23:22:03;;;;;;;7.93;6.97;;;-5.30;99.90;;;;;;4975779;28;20808;-81
2022/12/17 23:24:29;;;;;;;13.53;8.97;;;-5.20;99.90;;;;;;4990736;28;20173;-80
2022/12/17 23:26:54;;;;;;;11.37;8.20;;;-5.30;99.90;;;;;;4990525;28;20177;-80
2022/12/17 23:29:20;;;;;;;13.60;8.90;;;-5.30;99.90;;;;;;4975129;28;20180;-80
2022/12/17 23:31:46;;;;;;;19.67;8.53;;;-5.40;99.90;;;;;;4990447;28;20248;-80
2022/12/17 23:34:12;;;;;;;14.73;9.33;;;-5.60;99.90;;;;;;4990447;28;20177;-81
2022/12/17 23:36:38;;;;;;;9.77;7.40;;;-5.50;99.90;;;;;;4935785;28;20457;-80
2022/12/17 23:39:04;;;;;;;9.63;8.60;;;-5.50;99.90;;;;;;4975417;28;20451;-80
2022/12/17 23:41:30;;;;;;;12.53;7.57;;;-5.40;99.90;;;;;;4973978;28;20169;-80
2022/12/17 23:43:57;;;;;;;11.40;7.67;;;-5.50;99.90;;;;;;4973761;28;20473;-81
2022/12/17 23:46:25;;;;;;;6.47;4.87;;;-5.50;99.90;;;;;;4974204;28;20953;-80
2022/12/17 23:48:50;;;;;;;7.13;4.97;;;-5.50;99.90;;;;;;4973718;28;20939;-83
2022/12/17 23:51:18;;;;;;;4.40;4.00;;;-5.50;99.90;;;;;;4974071;28;20416;-83
2022/12/17 23:53:44;;;;;;;8.93;7.83;;;-5.60;99.90;;;;;;4973651;28;20464;-83
2022/12/17 23:56:18;;;;;;;11.60;7.13;;;-5.30;99.90;;;;;;4973859;28;20431;-82
2022/12/17 23:58:45;;;;;;;12.00;6.20;;;-5.00;99.90;;;;;;4974931;28;20489;-85
